sensor_id;sensor_type;location;lat;lon;timestamp;P1;durP1;ratioP1;P2;durP2;ratioP2
74108;SDS011;62466;47.566;7.786;2022-08-26T00:01:14;2.78;;;2.00;;
74108;SDS011;62466;47.566;7.786;2022-08-26T00:03:40;2.60;;;2.20;;
74108;SDS011;62466;47.566;7.786;2022-08-26T00:06:06;2.10;;;2.00;;
74108;SDS011;62466;47.566;7.786;2022-08-26T00:08:32;2.78;;;2.35;;
74108;SDS011;62466;47.566;7.786;2022-08-26T00:10:57;2.30;;;2.05;;
74108;SDS011;62466;47.566;7.786;2022-08-26T00:13:23;2.40;;;2.00;;
74108;SDS011;62466;47.566;7.786;2022-08-26T00:15:50;3.67;;;2.13;;
74108;SDS011;62466;47.566;7.786;2022-08-26T00:18:16;2.30;;;1.92;;
74108;SDS011;62466;47.566;7.786;2022-08-26T00:20:42;2.03;;;1.90;;
74108;SDS011;62466;47.566;7.786;2022-08-26T00:23:07;2.30;;;2.10;;
74108;SDS011;62466;47.566;7.786;2022-08-26T00:25:33;2.08;;;1.90;;
74108;SDS011;62466;47.566;7.786;2022-08-26T00:27:59;2.22;;;2.13;;
74108;SDS011;62466;47.566;7.786;2022-08-26T00:30:26;2.10;;;1.85;;
74108;SDS011;62466;47.566;7.786;2022-08-26T00:32:52;2.33;;;2.08;;
74108;SDS011;62466;47.566;7.786;2022-08-26T00:35:18;1.98;;;1.88;;
74108;SDS011;62466;47.566;7.786;2022-08-26T00:37:44;2.10;;;1.90;;
74108;SDS011;62466;47.566;7.786;2022-08-26T00:40:11;2.20;;;2.00;;
74108;SDS011;62466;47.566;7.786;2022-08-26T00:42:42;3.47;;;1.90;;
74108;SDS011;62466;47.566;7.786;2022-08-26T00:45:08;2.08;;;1.92;;
74108;SDS011;62466;47.566;7.786;2022-08-26T00:47:36;2.85;;;2.00;;
74108;SDS011;62466;47.566;7.786;2022-08-26T00:50:15;2.47;;;1.90;;
74108;SDS011;62466;47.566;7.786;2022-08-26T00:52:44;1.92;;;1.80;;
74108;SDS011;62466;47.566;7.786;2022-08-26T00:55:35;3.60;;;2.10;;
74108;SDS011;62466;47.566;7.786;2022-08-26T00:58:03;2.20;;;2.00;;
74108;SDS011;62466;47.566;7.786;2022-08-26T01:00:30;1.95;;;1.85;;
74108;SDS011;62466;47.566;7.786;2022-08-26T01:02:56;2.22;;;2.10;;
74108;SDS011;62466;47.566;7.786;2022-08-26T01:05:24;2.58;;;2.00;;
74108;SDS011;62466;47.566;7.786;2022-08-26T01:07:49;2.20;;;2.10;;
74108;SDS011;62466;47.566;7.786;2022-08-26T01:10:17;2.30;;;2.10;;
74108;SDS011;62466;47.566;7.786;2022-08-26T01:12:47;2.00;;;1.85;;
74108;SDS011;62466;47.566;7.786;2022-08-26T01:15:15;2.22;;;2.00;;
74108;SDS011;62466;47.566;7.786;2022-08-26T01:17:46;2.13;;;2.03;;
74108;SDS011;62466;47.566;7.786;2022-08-26T01:23:06;2.30;;;2.15;;
74108;SDS011;62466;47.566;7.786;2022-08-26T01:25:34;2.17;;;2.08;;
74108;SDS011;62466;47.566;7.786;2022-08-26T01:28:04;1.92;;;1.83;;
74108;SDS011;62466;47.566;7.786;2022-08-26T01:30:33;2.25;;;2.05;;
74108;SDS011;62466;47.566;7.786;2022-08-26T01:33:00;2.20;;;2.10;;
74108;SDS011;62466;47.566;7.786;2022-08-26T01:35:28;4.03;;;2.20;;
74108;SDS011;62466;47.566;7.786;2022-08-26T01:37:54;1.90;;;1.77;;
74108;SDS011;62466;47.566;7.786;2022-08-26T01:40:22;2.13;;;1.98;;
74108;SDS011;62466;47.566;7.786;2022-08-26T01:42:53;2.58;;;2.00;;
74108;SDS011;62466;47.566;7.786;2022-08-26T01:45:23;2.45;;;2.13;;
74108;SDS011;62466;47.566;7.786;2022-08-26T01:47:51;2.40;;;2.20;;
74108;SDS011;62466;47.566;7.786;2022-08-26T01:50:20;3.28;;;2.00;;
74108;SDS011;62466;47.566;7.786;2022-08-26T01:52:48;2.70;;;2.50;;
74108;SDS011;62466;47.566;7.786;2022-08-26T01:55:15;3.97;;;2.10;;
74108;SDS011;62466;47.566;7.786;2022-08-26T01:57:42;2.50;;;2.22;;
74108;SDS011;62466;47.566;7.786;2022-08-26T02:00:09;2.40;;;2.20;;
74108;SDS011;62466;47.566;7.786;2022-08-26T02:02:38;2.15;;;1.95;;
74108;SDS011;62466;47.566;7.786;2022-08-26T02:05:05;2.42;;;2.05;;
74108;SDS011;62466;47.566;7.786;2022-08-26T02:07:31;2.00;;;1.88;;
74108;SDS011;62466;47.566;7.786;2022-08-26T02:09:57;2.50;;;2.30;;
74108;SDS011;62466;47.566;7.786;2022-08-26T02:12:23;1.95;;;1.80;;
74108;SDS011;62466;47.566;7.786;2022-08-26T02:14:51;2.38;;;2.25;;
74108;SDS011;62466;47.566;7.786;2022-08-26T02:17:19;2.88;;;2.08;;
74108;SDS011;62466;47.566;7.786;2022-08-26T02:19:47;2.20;;;2.10;;
74108;SDS011;62466;47.566;7.786;2022-08-26T02:22:17;2.40;;;2.20;;
74108;SDS011;62466;47.566;7.786;2022-08-26T02:27:12;2.50;;;2.30;;
74108;SDS011;62466;47.566;7.786;2022-08-26T02:29:40;2.50;;;2.30;;
74108;SDS011;62466;47.566;7.786;2022-08-26T02:32:08;2.00;;;1.90;;
74108;SDS011;62466;47.566;7.786;2022-08-26T02:34:34;2.35;;;2.22;;
74108;SDS011;62466;47.566;7.786;2022-08-26T02:37:01;2.40;;;2.00;;
74108;SDS011;62466;47.566;7.786;2022-08-26T02:39:28;5.10;;;2.25;;
74108;SDS011;62466;47.566;7.786;2022-08-26T02:41:54;3.17;;;1.92;;
74108;SDS011;62466;47.566;7.786;2022-08-26T02:44:20;2.47;;;2.28;;
74108;SDS011;62466;47.566;7.786;2022-08-26T02:46:46;2.13;;;1.92;;
74108;SDS011;62466;47.566;7.786;2022-08-26T02:49:11;2.88;;;2.08;;
74108;SDS011;62466;47.566;7.786;2022-08-26T02:51:37;2.50;;;2.30;;
74108;SDS011;62466;47.566;7.786;2022-08-26T02:54:02;1.98;;;1.88;;
74108;SDS011;62466;47.566;7.786;2022-08-26T02:56:29;4.47;;;2.28;;
74108;SDS011;62466;47.566;7.786;2022-08-26T02:58:56;3.53;;;2.05;;
74108;SDS011;62466;47.566;7.786;2022-08-26T03:01:22;1.85;;;1.75;;
74108;SDS011;62466;47.566;7.786;2022-08-26T03:03:54;5.45;;;2.33;;
74108;SDS011;62466;47.566;7.786;2022-08-26T03:06:19;2.30;;;2.10;;
74108;SDS011;62466;47.566;7.786;2022-08-26T03:08:45;2.30;;;2.10;;
74108;SDS011;62466;47.566;7.786;2022-08-26T03:11:11;2.40;;;2.20;;
74108;SDS011;62466;47.566;7.786;2022-08-26T03:13:37;2.58;;;2.28;;
74108;SDS011;62466;47.566;7.786;2022-08-26T03:16:03;2.58;;;2.38;;
74108;SDS011;62466;47.566;7.786;2022-08-26T03:18:29;2.40;;;2.20;;
74108;SDS011;62466;47.566;7.786;2022-08-26T03:20:54;2.60;;;2.40;;
74108;SDS011;62466;47.566;7.786;2022-08-26T03:23:20;2.50;;;2.30;;
74108;SDS011;62466;47.566;7.786;2022-08-26T03:25:49;2.45;;;2.25;;
74108;SDS011;62466;47.566;7.786;2022-08-26T03:28:15;2.25;;;2.10;;
74108;SDS011;62466;47.566;7.786;2022-08-26T03:30:41;2.40;;;2.20;;
74108;SDS011;62466;47.566;7.786;2022-08-26T03:33:09;2.17;;;2.08;;
74108;SDS011;62466;47.566;7.786;2022-08-26T03:35:35;2.50;;;2.30;;
74108;SDS011;62466;47.566;7.786;2022-08-26T03:38:02;2.30;;;2.10;;
74108;SDS011;62466;47.566;7.786;2022-08-26T03:40:29;2.28;;;2.08;;
74108;SDS011;62466;47.566;7.786;2022-08-26T03:42:58;2.40;;;2.20;;
74108;SDS011;62466;47.566;7.786;2022-08-26T03:45:24;2.92;;;2.72;;
74108;SDS011;62466;47.566;7.786;2022-08-26T03:47:50;2.50;;;2.30;;
74108;SDS011;62466;47.566;7.786;2022-08-26T03:50:16;2.40;;;2.20;;
74108;SDS011;62466;47.566;7.786;2022-08-26T03:52:43;2.88;;;2.58;;
74108;SDS011;62466;47.566;7.786;2022-08-26T03:55:08;2.50;;;2.30;;
74108;SDS011;62466;47.566;7.786;2022-08-26T03:57:34;2.47;;;2.28;;
74108;SDS011;62466;47.566;7.786;2022-08-26T04:00:00;2.75;;;2.20;;
74108;SDS011;62466;47.566;7.786;2022-08-26T04:02:26;2.33;;;2.13;;
74108;SDS011;62466;47.566;7.786;2022-08-26T04:04:51;3.05;;;2.85;;
74108;SDS011;62466;47.566;7.786;2022-08-26T04:07:17;2.50;;;2.33;;
74108;SDS011;62466;47.566;7.786;2022-08-26T04:09:42;2.88;;;2.63;;
74108;SDS011;62466;47.566;7.786;2022-08-26T04:12:08;4.05;;;2.30;;
74108;SDS011;62466;47.566;7.786;2022-08-26T04:14:35;2.63;;;2.42;;
74108;SDS011;62466;47.566;7.786;2022-08-26T04:17:02;2.45;;;2.03;;
74108;SDS011;62466;47.566;7.786;2022-08-26T04:19:29;2.20;;;2.00;;
74108;SDS011;62466;47.566;7.786;2022-08-26T04:21:55;3.92;;;2.30;;
74108;SDS011;62466;47.566;7.786;2022-08-26T04:24:22;2.42;;;2.22;;
74108;SDS011;62466;47.566;7.786;2022-08-26T04:26:48;2.67;;;2.20;;
74108;SDS011;62466;47.566;7.786;2022-08-26T04:29:15;2.08;;;1.95;;
74108;SDS011;62466;47.566;7.786;2022-08-26T04:31:47;3.05;;;2.10;;
74108;SDS011;62466;47.566;7.786;2022-08-26T04:34:13;2.40;;;2.20;;
74108;SDS011;62466;47.566;7.786;2022-08-26T04:36:38;3.13;;;2.38;;
74108;SDS011;62466;47.566;7.786;2022-08-26T04:39:05;2.50;;;2.30;;
74108;SDS011;62466;47.566;7.786;2022-08-26T04:41:31;2.40;;;2.20;;
74108;SDS011;62466;47.566;7.786;2022-08-26T04:43:57;2.80;;;2.10;;
74108;SDS011;62466;47.566;7.786;2022-08-26T04:46:23;2.53;;;2.33;;
74108;SDS011;62466;47.566;7.786;2022-08-26T04:48:49;2.55;;;2.35;;
74108;SDS011;62466;47.566;7.786;2022-08-26T04:51:16;3.22;;;2.38;;
74108;SDS011;62466;47.566;7.786;2022-08-26T04:53:41;2.67;;;2.33;;
74108;SDS011;62466;47.566;7.786;2022-08-26T04:56:07;2.83;;;2.53;;
74108;SDS011;62466;47.566;7.786;2022-08-26T04:58:33;3.03;;;2.75;;
74108;SDS011;62466;47.566;7.786;2022-08-26T05:01:06;3.78;;;3.03;;
74108;SDS011;62466;47.566;7.786;2022-08-26T05:03:32;3.40;;;2.72;;
74108;SDS011;62466;47.566;7.786;2022-08-26T05:06:01;4.10;;;3.10;;
74108;SDS011;62466;47.566;7.786;2022-08-26T05:08:28;6.05;;;3.38;;
74108;SDS011;62466;47.566;7.786;2022-08-26T05:10:54;4.47;;;3.30;;
74108;SDS011;62466;47.566;7.786;2022-08-26T05:13:20;4.32;;;3.13;;
74108;SDS011;62466;47.566;7.786;2022-08-26T05:15:46;5.15;;;3.60;;
74108;SDS011;62466;47.566;7.786;2022-08-26T05:18:13;4.78;;;3.20;;
74108;SDS011;62466;47.566;7.786;2022-08-26T05:20:41;5.25;;;3.35;;
74108;SDS011;62466;47.566;7.786;2022-08-26T05:23:11;7.28;;;3.65;;
74108;SDS011;62466;47.566;7.786;2022-08-26T05:25:38;4.00;;;3.35;;
74108;SDS011;62466;47.566;7.786;2022-08-26T05:28:06;7.25;;;3.25;;
74108;SDS011;62466;47.566;7.786;2022-08-26T05:30:32;7.50;;;3.50;;
74108;SDS011;62466;47.566;7.786;2022-08-26T05:32:59;5.50;;;3.15;;
74108;SDS011;62466;47.566;7.786;2022-08-26T05:35:26;4.10;;;3.60;;
74108;SDS011;62466;47.566;7.786;2022-08-26T05:37:56;4.85;;;4.35;;
74108;SDS011;62466;47.566;7.786;2022-08-26T05:40:23;4.32;;;3.15;;
74108;SDS011;62466;47.566;7.786;2022-08-26T05:42:48;5.53;;;3.97;;
74108;SDS011;62466;47.566;7.786;2022-08-26T05:45:14;6.25;;;3.88;;
74108;SDS011;62466;47.566;7.786;2022-08-26T05:47:39;6.55;;;3.75;;
74108;SDS011;62466;47.566;7.786;2022-08-26T05:50:05;6.32;;;3.50;;
74108;SDS011;62466;47.566;7.786;2022-08-26T05:52:31;4.75;;;4.05;;
74108;SDS011;62466;47.566;7.786;2022-08-26T05:54:57;6.43;;;3.78;;
74108;SDS011;62466;47.566;7.786;2022-08-26T05:57:23;5.97;;;4.22;;
74108;SDS011;62466;47.566;7.786;2022-08-26T05:59:48;4.93;;;4.03;;
74108;SDS011;62466;47.566;7.786;2022-08-26T06:02:13;7.25;;;4.07;;
74108;SDS011;62466;47.566;7.786;2022-08-26T06:04:39;4.38;;;3.50;;
74108;SDS011;62466;47.566;7.786;2022-08-26T06:07:04;4.43;;;3.28;;
74108;SDS011;62466;47.566;7.786;2022-08-26T06:09:30;6.70;;;4.15;;
74108;SDS011;62466;47.566;7.786;2022-08-26T06:11:55;5.95;;;4.45;;
74108;SDS011;62466;47.566;7.786;2022-08-26T06:14:23;5.25;;;4.00;;
74108;SDS011;62466;47.566;7.786;2022-08-26T06:16:50;8.93;;;5.18;;
74108;SDS011;62466;47.566;7.786;2022-08-26T06:19:15;10.15;;;5.85;;
74108;SDS011;62466;47.566;7.786;2022-08-26T06:21:46;9.93;;;6.20;;
74108;SDS011;62466;47.566;7.786;2022-08-26T06:24:12;7.22;;;5.68;;
74108;SDS011;62466;47.566;7.786;2022-08-26T06:27:01;8.13;;;5.63;;
74108;SDS011;62466;47.566;7.786;2022-08-26T06:29:30;8.68;;;5.65;;
74108;SDS011;62466;47.566;7.786;2022-08-26T06:31:57;10.93;;;6.28;;
74108;SDS011;62466;47.566;7.786;2022-08-26T06:34:24;8.35;;;5.70;;
74108;SDS011;62466;47.566;7.786;2022-08-26T06:36:52;7.75;;;5.05;;
74108;SDS011;62466;47.566;7.786;2022-08-26T06:39:18;9.23;;;5.65;;
74108;SDS011;62466;47.566;7.786;2022-08-26T06:41:43;8.20;;;5.03;;
74108;SDS011;62466;47.566;7.786;2022-08-26T06:44:15;7.85;;;5.93;;
74108;SDS011;62466;47.566;7.786;2022-08-26T06:46:41;8.38;;;5.70;;
74108;SDS011;62466;47.566;7.786;2022-08-26T06:49:07;7.55;;;5.10;;
74108;SDS011;62466;47.566;7.786;2022-08-26T06:51:34;8.50;;;4.60;;
74108;SDS011;62466;47.566;7.786;2022-08-26T06:54:01;7.55;;;5.88;;
74108;SDS011;62466;47.566;7.786;2022-08-26T06:56:32;7.72;;;6.90;;
74108;SDS011;62466;47.566;7.786;2022-08-26T06:58:59;10.18;;;5.35;;
74108;SDS011;62466;47.566;7.786;2022-08-26T07:01:26;9.30;;;6.78;;
74108;SDS011;62466;47.566;7.786;2022-08-26T07:03:54;9.20;;;6.30;;
74108;SDS011;62466;47.566;7.786;2022-08-26T07:06:22;9.52;;;5.78;;
74108;SDS011;62466;47.566;7.786;2022-08-26T07:08:49;9.40;;;5.95;;
74108;SDS011;62466;47.566;7.786;2022-08-26T07:11:16;6.03;;;4.97;;
74108;SDS011;62466;47.566;7.786;2022-08-26T07:13:43;6.82;;;5.05;;
74108;SDS011;62466;47.566;7.786;2022-08-26T07:16:15;7.80;;;5.88;;
74108;SDS011;62466;47.566;7.786;2022-08-26T07:18:41;8.95;;;5.63;;
74108;SDS011;62466;47.566;7.786;2022-08-26T07:21:08;8.02;;;5.65;;
74108;SDS011;62466;47.566;7.786;2022-08-26T07:23:35;8.88;;;5.20;;
74108;SDS011;62466;47.566;7.786;2022-08-26T07:26:05;5.78;;;4.82;;
74108;SDS011;62466;47.566;7.786;2022-08-26T07:28:32;8.27;;;5.43;;
74108;SDS011;62466;47.566;7.786;2022-08-26T07:30:57;9.13;;;5.78;;
74108;SDS011;62466;47.566;7.786;2022-08-26T07:33:24;9.18;;;5.18;;
74108;SDS011;62466;47.566;7.786;2022-08-26T07:35:49;8.63;;;5.45;;
74108;SDS011;62466;47.566;7.786;2022-08-26T07:38:15;8.75;;;4.80;;
74108;SDS011;62466;47.566;7.786;2022-08-26T07:40:41;5.47;;;4.60;;
74108;SDS011;62466;47.566;7.786;2022-08-26T07:43:07;9.85;;;5.25;;
74108;SDS011;62466;47.566;7.786;2022-08-26T07:45:33;7.95;;;4.18;;
74108;SDS011;62466;47.566;7.786;2022-08-26T07:47:58;5.45;;;4.43;;
74108;SDS011;62466;47.566;7.786;2022-08-26T07:50:24;5.32;;;4.07;;
74108;SDS011;62466;47.566;7.786;2022-08-26T07:52:50;5.53;;;4.18;;
74108;SDS011;62466;47.566;7.786;2022-08-26T07:55:15;6.43;;;4.75;;
74108;SDS011;62466;47.566;7.786;2022-08-26T07:57:41;7.03;;;4.70;;
74108;SDS011;62466;47.566;7.786;2022-08-26T08:00:08;5.45;;;3.78;;
74108;SDS011;62466;47.566;7.786;2022-08-26T08:02:38;7.72;;;4.72;;
74108;SDS011;62466;47.566;7.786;2022-08-26T08:05:04;7.70;;;4.30;;
74108;SDS011;62466;47.566;7.786;2022-08-26T08:07:30;7.00;;;4.22;;
74108;SDS011;62466;47.566;7.786;2022-08-26T08:09:55;5.15;;;4.60;;
74108;SDS011;62466;47.566;7.786;2022-08-26T08:12:21;7.35;;;4.70;;
74108;SDS011;62466;47.566;7.786;2022-08-26T08:14:46;6.75;;;3.95;;
74108;SDS011;62466;47.566;7.786;2022-08-26T08:17:13;5.65;;;4.22;;
74108;SDS011;62466;47.566;7.786;2022-08-26T08:19:38;6.20;;;4.10;;
74108;SDS011;62466;47.566;7.786;2022-08-26T08:22:05;8.60;;;4.18;;
74108;SDS011;62466;47.566;7.786;2022-08-26T08:24:31;5.70;;;4.20;;
74108;SDS011;62466;47.566;7.786;2022-08-26T08:26:59;4.07;;;3.60;;
74108;SDS011;62466;47.566;7.786;2022-08-26T08:29:25;6.53;;;4.03;;
74108;SDS011;62466;47.566;7.786;2022-08-26T08:31:54;4.88;;;3.92;;
74108;SDS011;62466;47.566;7.786;2022-08-26T08:34:26;7.20;;;4.05;;
74108;SDS011;62466;47.566;7.786;2022-08-26T08:36:52;9.82;;;5.10;;
74108;SDS011;62466;47.566;7.786;2022-08-26T08:39:18;6.28;;;4.45;;
74108;SDS011;62466;47.566;7.786;2022-08-26T08:42:23;6.57;;;3.85;;
74108;SDS011;62466;47.566;7.786;2022-08-26T08:44:41;4.18;;;3.78;;
74108;SDS011;62466;47.566;7.786;2022-08-26T08:47:16;7.95;;;4.40;;
74108;SDS011;62466;47.566;7.786;2022-08-26T08:49:44;5.40;;;4.00;;
74108;SDS011;62466;47.566;7.786;2022-08-26T08:55:05;5.30;;;3.33;;
74108;SDS011;62466;47.566;7.786;2022-08-26T09:00:15;4.18;;;3.88;;
74108;SDS011;62466;47.566;7.786;2022-08-26T09:02:47;4.65;;;3.63;;
74108;SDS011;62466;47.566;7.786;2022-08-26T09:07:51;5.03;;;3.50;;
74108;SDS011;62466;47.566;7.786;2022-08-26T09:10:28;3.92;;;3.63;;
74108;SDS011;62466;47.566;7.786;2022-08-26T09:12:57;6.40;;;3.85;;
74108;SDS011;62466;47.566;7.786;2022-08-26T09:16:25;6.80;;;3.75;;
74108;SDS011;62466;47.566;7.786;2022-08-26T09:21:08;6.40;;;3.97;;
74108;SDS011;62466;47.566;7.786;2022-08-26T09:23:37;8.32;;;3.20;;
74108;SDS011;62466;47.566;7.786;2022-08-26T09:28:42;3.65;;;3.13;;
74108;SDS011;62466;47.566;7.786;2022-08-26T09:31:27;4.93;;;3.15;;
74108;SDS011;62466;47.566;7.786;2022-08-26T09:34:05;5.72;;;3.35;;
74108;SDS011;62466;47.566;7.786;2022-08-26T09:36:36;7.30;;;3.88;;
74108;SDS011;62466;47.566;7.786;2022-08-26T09:39:05;6.05;;;3.47;;
74108;SDS011;62466;47.566;7.786;2022-08-26T09:50:19;13.23;;;3.77;;
74108;SDS011;62466;47.566;7.786;2022-08-26T09:52:50;9.13;;;3.42;;
74108;SDS011;62466;47.566;7.786;2022-08-26T09:55:48;9.00;;;3.20;;
74108;SDS011;62466;47.566;7.786;2022-08-26T09:58:37;5.07;;;3.17;;
74108;SDS011;62466;47.566;7.786;2022-08-26T10:01:06;4.75;;;2.80;;
74108;SDS011;62466;47.566;7.786;2022-08-26T10:03:35;3.88;;;2.92;;
74108;SDS011;62466;47.566;7.786;2022-08-26T10:08:35;3.85;;;2.75;;
74108;SDS011;62466;47.566;7.786;2022-08-26T10:11:02;5.82;;;3.13;;
74108;SDS011;62466;47.566;7.786;2022-08-26T10:13:36;5.60;;;2.70;;
74108;SDS011;62466;47.566;7.786;2022-08-26T10:19:03;4.82;;;3.25;;
74108;SDS011;62466;47.566;7.786;2022-08-26T10:21:42;9.65;;;2.90;;
74108;SDS011;62466;47.566;7.786;2022-08-26T10:24:14;4.65;;;2.40;;
74108;SDS011;62466;47.566;7.786;2022-08-26T10:26:55;3.60;;;2.67;;
74108;SDS011;62466;47.566;7.786;2022-08-26T10:29:28;3.30;;;2.58;;
74108;SDS011;62466;47.566;7.786;2022-08-26T10:31:59;4.35;;;2.80;;
74108;SDS011;62466;47.566;7.786;2022-08-26T10:34:26;3.17;;;2.85;;
74108;SDS011;62466;47.566;7.786;2022-08-26T10:39:57;6.13;;;2.53;;
74108;SDS011;62466;47.566;7.786;2022-08-26T10:42:33;3.88;;;3.25;;
74108;SDS011;62466;47.566;7.786;2022-08-26T10:45:04;2.92;;;2.63;;
74108;SDS011;62466;47.566;7.786;2022-08-26T10:47:49;4.32;;;3.13;;
74108;SDS011;62466;47.566;7.786;2022-08-26T10:50:18;2.55;;;2.20;;
74108;SDS011;62466;47.566;7.786;2022-08-26T11:00:49;3.08;;;2.78;;
74108;SDS011;62466;47.566;7.786;2022-08-26T11:08:47;4.70;;;3.05;;
74108;SDS011;62466;47.566;7.786;2022-08-26T11:11:59;3.58;;;2.97;;
74108;SDS011;62466;47.566;7.786;2022-08-26T11:14:07;5.70;;;2.90;;
74108;SDS011;62466;47.566;7.786;2022-08-26T11:19:10;3.72;;;2.97;;
74108;SDS011;62466;47.566;7.786;2022-08-26T11:35:12;4.85;;;3.60;;
74108;SDS011;62466;47.566;7.786;2022-08-26T11:38:19;5.00;;;3.88;;
74108;SDS011;62466;47.566;7.786;2022-08-26T11:40:58;3.42;;;3.00;;
74108;SDS011;62466;47.566;7.786;2022-08-26T11:43:30;3.70;;;3.28;;
74108;SDS011;62466;47.566;7.786;2022-08-26T11:45:58;3.92;;;3.25;;
74108;SDS011;62466;47.566;7.786;2022-08-26T11:53:19;5.57;;;3.33;;
74108;SDS011;62466;47.566;7.786;2022-08-26T11:55:45;3.40;;;3.10;;
74108;SDS011;62466;47.566;7.786;2022-08-26T11:58:11;3.22;;;3.03;;
74108;SDS011;62466;47.566;7.786;2022-08-26T12:00:46;3.40;;;3.10;;
74108;SDS011;62466;47.566;7.786;2022-08-26T12:03:49;3.55;;;3.25;;
74108;SDS011;62466;47.566;7.786;2022-08-26T12:06:15;4.13;;;3.33;;
74108;SDS011;62466;47.566;7.786;2022-08-26T12:08:42;4.38;;;3.05;;
74108;SDS011;62466;47.566;7.786;2022-08-26T12:11:09;5.95;;;3.35;;
74108;SDS011;62466;47.566;7.786;2022-08-26T12:14:20;4.43;;;3.58;;
74108;SDS011;62466;47.566;7.786;2022-08-26T12:16:43;5.25;;;3.53;;
74108;SDS011;62466;47.566;7.786;2022-08-26T12:21:57;4.82;;;3.83;;
74108;SDS011;62466;47.566;7.786;2022-08-26T12:24:26;6.15;;;4.30;;
74108;SDS011;62466;47.566;7.786;2022-08-26T12:27:03;4.13;;;3.80;;
74108;SDS011;62466;47.566;7.786;2022-08-26T12:29:35;5.78;;;3.67;;
74108;SDS011;62466;47.566;7.786;2022-08-26T12:32:11;4.65;;;3.88;;
74108;SDS011;62466;47.566;7.786;2022-08-26T12:34:42;6.07;;;4.20;;
74108;SDS011;62466;47.566;7.786;2022-08-26T12:37:10;4.10;;;3.70;;
74108;SDS011;62466;47.566;7.786;2022-08-26T12:39:37;4.07;;;3.67;;
74108;SDS011;62466;47.566;7.786;2022-08-26T12:42:50;7.47;;;3.90;;
74108;SDS011;62466;47.566;7.786;2022-08-26T12:45:08;5.60;;;3.63;;
74108;SDS011;62466;47.566;7.786;2022-08-26T12:47:41;4.13;;;3.72;;
74108;SDS011;62466;47.566;7.786;2022-08-26T12:50:08;5.20;;;3.92;;
74108;SDS011;62466;47.566;7.786;2022-08-26T12:52:59;5.00;;;3.40;;
74108;SDS011;62466;47.566;7.786;2022-08-26T13:03:28;6.90;;;3.75;;
74108;SDS011;62466;47.566;7.786;2022-08-26T13:08:40;5.90;;;3.92;;
74108;SDS011;62466;47.566;7.786;2022-08-26T13:13:42;5.15;;;3.15;;
74108;SDS011;62466;47.566;7.786;2022-08-26T13:16:10;4.93;;;3.90;;
74108;SDS011;62466;47.566;7.786;2022-08-26T13:18:36;6.35;;;3.90;;
74108;SDS011;62466;47.566;7.786;2022-08-26T13:21:10;5.60;;;4.40;;
74108;SDS011;62466;47.566;7.786;2022-08-26T13:23:44;4.40;;;4.00;;
74108;SDS011;62466;47.566;7.786;2022-08-26T13:26:10;3.83;;;3.53;;
74108;SDS011;62466;47.566;7.786;2022-08-26T13:28:36;5.38;;;3.97;;
74108;SDS011;62466;47.566;7.786;2022-08-26T13:31:01;4.55;;;4.15;;
74108;SDS011;62466;47.566;7.786;2022-08-26T13:33:28;4.97;;;4.55;;
74108;SDS011;62466;47.566;7.786;2022-08-26T13:35:54;4.63;;;4.15;;
74108;SDS011;62466;47.566;7.786;2022-08-26T13:38:19;4.45;;;3.85;;
74108;SDS011;62466;47.566;7.786;2022-08-26T13:40:45;4.45;;;3.83;;
74108;SDS011;62466;47.566;7.786;2022-08-26T13:43:11;7.40;;;4.05;;
74108;SDS011;62466;47.566;7.786;2022-08-26T13:45:37;6.20;;;4.55;;
74108;SDS011;62466;47.566;7.786;2022-08-26T13:48:03;5.13;;;4.50;;
74108;SDS011;62466;47.566;7.786;2022-08-26T13:50:29;5.07;;;4.30;;
74108;SDS011;62466;47.566;7.786;2022-08-26T13:52:55;6.38;;;4.03;;
74108;SDS011;62466;47.566;7.786;2022-08-26T13:55:20;5.85;;;4.63;;
74108;SDS011;62466;47.566;7.786;2022-08-26T13:57:46;5.07;;;4.57;;
74108;SDS011;62466;47.566;7.786;2022-08-26T14:00:11;6.47;;;4.63;;
74108;SDS011;62466;47.566;7.786;2022-08-26T14:02:37;11.02;;;4.70;;
74108;SDS011;62466;47.566;7.786;2022-08-26T14:05:03;5.72;;;3.97;;
74108;SDS011;62466;47.566;7.786;2022-08-26T14:07:29;7.82;;;4.70;;
74108;SDS011;62466;47.566;7.786;2022-08-26T14:09:55;6.07;;;4.53;;
74108;SDS011;62466;47.566;7.786;2022-08-26T14:12:20;4.75;;;4.35;;
74108;SDS011;62466;47.566;7.786;2022-08-26T14:14:45;5.60;;;4.57;;
74108;SDS011;62466;47.566;7.786;2022-08-26T14:17:13;6.63;;;4.32;;
74108;SDS011;62466;47.566;7.786;2022-08-26T14:19:43;4.72;;;4.30;;
74108;SDS011;62466;47.566;7.786;2022-08-26T14:22:11;4.40;;;4.00;;
74108;SDS011;62466;47.566;7.786;2022-08-26T14:24:38;5.28;;;4.43;;
74108;SDS011;62466;47.566;7.786;2022-08-26T14:27:04;5.82;;;4.88;;
74108;SDS011;62466;47.566;7.786;2022-08-26T14:29:29;5.22;;;4.18;;
74108;SDS011;62466;47.566;7.786;2022-08-26T14:31:55;5.00;;;4.07;;
74108;SDS011;62466;47.566;7.786;2022-08-26T14:34:21;6.65;;;4.60;;
74108;SDS011;62466;47.566;7.786;2022-08-26T14:36:46;5.30;;;4.72;;
74108;SDS011;62466;47.566;7.786;2022-08-26T14:39:12;5.03;;;4.45;;
74108;SDS011;62466;47.566;7.786;2022-08-26T14:41:43;7.57;;;5.35;;
74108;SDS011;62466;47.566;7.786;2022-08-26T14:44:11;7.03;;;4.70;;
74108;SDS011;62466;47.566;7.786;2022-08-26T14:46:41;8.43;;;5.03;;
74108;SDS011;62466;47.566;7.786;2022-08-26T14:49:08;5.68;;;4.95;;
74108;SDS011;62466;47.566;7.786;2022-08-26T14:51:34;8.48;;;4.80;;
74108;SDS011;62466;47.566;7.786;2022-08-26T14:54:00;7.25;;;4.75;;
74108;SDS011;62466;47.566;7.786;2022-08-26T14:56:40;5.90;;;4.38;;
74108;SDS011;62466;47.566;7.786;2022-08-26T14:59:08;7.45;;;4.82;;
74108;SDS011;62466;47.566;7.786;2022-08-26T15:01:34;5.85;;;5.13;;
74108;SDS011;62466;47.566;7.786;2022-08-26T15:04:00;6.70;;;5.03;;
74108;SDS011;62466;47.566;7.786;2022-08-26T15:06:26;7.10;;;4.60;;
74108;SDS011;62466;47.566;7.786;2022-08-26T15:08:53;5.35;;;4.65;;
74108;SDS011;62466;47.566;7.786;2022-08-26T15:11:19;5.38;;;4.50;;
74108;SDS011;62466;47.566;7.786;2022-08-26T15:13:45;6.75;;;4.35;;
74108;SDS011;62466;47.566;7.786;2022-08-26T15:16:10;8.48;;;4.78;;
74108;SDS011;62466;47.566;7.786;2022-08-26T15:18:36;6.55;;;4.80;;
74108;SDS011;62466;47.566;7.786;2022-08-26T15:21:02;5.75;;;4.28;;
74108;SDS011;62466;47.566;7.786;2022-08-26T15:23:28;4.97;;;3.97;;
74108;SDS011;62466;47.566;7.786;2022-08-26T15:25:54;4.55;;;4.15;;
74108;SDS011;62466;47.566;7.786;2022-08-26T15:28:19;6.95;;;4.80;;
74108;SDS011;62466;47.566;7.786;2022-08-26T15:30:45;4.47;;;4.05;;
74108;SDS011;62466;47.566;7.786;2022-08-26T15:33:11;5.93;;;4.65;;
74108;SDS011;62466;47.566;7.786;2022-08-26T15:35:36;4.75;;;4.00;;
74108;SDS011;62466;47.566;7.786;2022-08-26T15:38:02;5.13;;;4.13;;
74108;SDS011;62466;47.566;7.786;2022-08-26T15:40:27;5.88;;;3.60;;
74108;SDS011;62466;47.566;7.786;2022-08-26T15:42:53;5.80;;;3.88;;
74108;SDS011;62466;47.566;7.786;2022-08-26T15:45:19;7.60;;;4.03;;
74108;SDS011;62466;47.566;7.786;2022-08-26T15:47:44;6.55;;;3.85;;
74108;SDS011;62466;47.566;7.786;2022-08-26T15:50:10;6.68;;;3.55;;
74108;SDS011;62466;47.566;7.786;2022-08-26T15:52:38;5.82;;;3.63;;
74108;SDS011;62466;47.566;7.786;2022-08-26T15:55:04;4.28;;;3.47;;
74108;SDS011;62466;47.566;7.786;2022-08-26T15:57:30;4.05;;;3.63;;
74108;SDS011;62466;47.566;7.786;2022-08-26T15:59:56;5.28;;;3.35;;
74108;SDS011;62466;47.566;7.786;2022-08-26T16:02:21;4.85;;;3.42;;
74108;SDS011;62466;47.566;7.786;2022-08-26T16:04:47;5.07;;;3.60;;
74108;SDS011;62466;47.566;7.786;2022-08-26T16:07:12;7.18;;;3.60;;
74108;SDS011;62466;47.566;7.786;2022-08-26T16:09:38;3.67;;;3.17;;
74108;SDS011;62466;47.566;7.786;2022-08-26T16:12:03;3.50;;;3.20;;
74108;SDS011;62466;47.566;7.786;2022-08-26T16:14:29;6.53;;;3.53;;
74108;SDS011;62466;47.566;7.786;2022-08-26T16:16:55;5.13;;;3.50;;
74108;SDS011;62466;47.566;7.786;2022-08-26T16:19:20;8.18;;;3.72;;
74108;SDS011;62466;47.566;7.786;2022-08-26T16:21:46;4.93;;;2.85;;